sensor_id;sensor_type;location;lat;lon;timestamp;P1;durP1;ratioP1;P2;durP2;ratioP2
23476;SDS011;11911;50.768;13.150;2022-09-09T04:02:32;2.30;;;0.90;;
23476;SDS011;11911;50.768;13.150;2022-09-09T04:04:58;3.67;;;1.10;;
23476;SDS011;11911;50.768;13.150;2022-09-09T04:07:24;3.63;;;1.20;;
23476;SDS011;11911;50.768;13.150;2022-09-09T04:09:50;2.57;;;1.23;;
23476;SDS011;11911;50.768;13.150;2022-09-09T04:12:16;1.70;;;1.30;;
23476;SDS011;11911;50.768;13.150;2022-09-09T04:14:41;3.33;;;1.50;;
23476;SDS011;11911;50.768;13.150;2022-09-09T04:17:07;3.23;;;1.03;;
23476;SDS011;11911;50.768;13.150;2022-09-09T04:19:32;2.80;;;2.23;;
23476;SDS011;11911;50.768;13.150;2022-09-09T05:01:12;7.03;;;2.20;;
23476;SDS011;11911;50.768;13.150;2022-09-09T05:03:40;4.07;;;1.50;;
23476;SDS011;11911;50.768;13.150;2022-09-09T05:06:07;10.63;;;2.20;;
23476;SDS011;11911;50.768;13.150;2022-09-09T05:08:36;5.50;;;2.43;;
23476;SDS011;11911;50.768;13.150;2022-09-09T05:11:02;4.57;;;2.13;;
23476;SDS011;11911;50.768;13.150;2022-09-09T05:13:28;5.00;;;2.40;;
23476;SDS011;11911;50.768;13.150;2022-09-09T05:15:54;7.23;;;3.00;;
23476;SDS011;11911;50.768;13.150;2022-09-09T05:18:20;11.63;;;3.33;;
23476;SDS011;11911;50.768;13.150;2022-09-09T05:20:47;10.50;;;4.70;;
23476;SDS011;11911;50.768;13.150;2022-09-09T05:23:13;16.40;;;7.83;;
23476;SDS011;11911;50.768;13.150;2022-09-09T05:25:38;6.63;;;2.90;;
23476;SDS011;11911;50.768;13.150;2022-09-09T05:28:05;12.77;;;6.83;;
23476;SDS011;11911;50.768;13.150;2022-09-09T05:30:32;8.93;;;5.20;;
23476;SDS011;11911;50.768;13.150;2022-09-09T05:32:57;8.53;;;4.93;;
23476;SDS011;11911;50.768;13.150;2022-09-09T05:35:23;17.27;;;7.90;;
23476;SDS011;11911;50.768;13.150;2022-09-09T05:37:49;6.50;;;4.40;;
23476;SDS011;11911;50.768;13.150;2022-09-09T05:40:14;14.10;;;6.63;;
23476;SDS011;11911;50.768;13.150;2022-09-09T05:42:40;13.33;;;4.30;;
23476;SDS011;11911;50.768;13.150;2022-09-09T05:45:06;6.03;;;2.83;;
23476;SDS011;11911;50.768;13.150;2022-09-09T05:47:33;5.07;;;1.57;;
23476;SDS011;11911;50.768;13.150;2022-09-09T05:50:00;2.10;;;1.90;;
23476;SDS011;11911;50.768;13.150;2022-09-09T05:52:25;3.30;;;1.90;;
23476;SDS011;11911;50.768;13.150;2022-09-09T05:54:52;1.93;;;1.60;;
23476;SDS011;11911;50.768;13.150;2022-09-09T05:57:19;1.50;;;1.10;;
23476;SDS011;11911;50.768;13.150;2022-09-09T05:59:45;2.67;;;1.40;;
23476;SDS011;11911;50.768;13.150;2022-09-09T06:02:11;3.00;;;1.00;;
23476;SDS011;11911;50.768;13.150;2022-09-09T06:04:37;2.57;;;0.90;;
23476;SDS011;11911;50.768;13.150;2022-09-09T06:07:04;4.30;;;1.20;;
23476;SDS011;11911;50.768;13.150;2022-09-09T06:09:30;7.33;;;1.23;;
23476;SDS011;11911;50.768;13.150;2022-09-09T06:11:55;2.53;;;1.00;;
23476;SDS011;11911;50.768;13.150;2022-09-09T06:14:23;2.43;;;1.20;;
23476;SDS011;11911;50.768;13.150;2022-09-09T06:16:50;3.20;;;1.50;;
23476;SDS011;11911;50.768;13.150;2022-09-09T06:19:15;10.17;;;5.03;;
23476;SDS011;11911;50.768;13.150;2022-09-09T06:21:41;12.37;;;6.20;;
23476;SDS011;11911;50.768;13.150;2022-09-09T06:24:07;12.60;;;5.40;;
23476;SDS011;11911;50.768;13.150;2022-09-09T06:26:34;8.60;;;4.63;;
23476;SDS011;11911;50.768;13.150;2022-09-09T06:29:01;6.87;;;3.17;;
23476;SDS011;11911;50.768;13.150;2022-09-09T06:31:29;11.00;;;3.10;;
23476;SDS011;11911;50.768;13.150;2022-09-09T06:33:56;6.10;;;2.43;;
23476;SDS011;11911;50.768;13.150;2022-09-09T06:36:26;4.53;;;1.93;;
23476;SDS011;11911;50.768;13.150;2022-09-09T06:38:54;4.60;;;1.40;;
23476;SDS011;11911;50.768;13.150;2022-09-09T06:41:20;5.13;;;1.00;;
23476;SDS011;11911;50.768;13.150;2022-09-09T06:43:47;3.43;;;1.40;;
23476;SDS011;11911;50.768;13.150;2022-09-09T06:46:14;6.40;;;1.20;;
23476;SDS011;11911;50.768;13.150;2022-09-09T06:48:52;4.20;;;1.13;;
23476;SDS011;11911;50.768;13.150;2022-09-09T06:51:24;4.40;;;1.47;;
23476;SDS011;11911;50.768;13.150;2022-09-09T06:53:55;3.97;;;1.33;;
23476;SDS011;11911;50.768;13.150;2022-09-09T06:56:28;4.73;;;1.47;;
23476;SDS011;11911;50.768;13.150;2022-09-09T06:58:58;8.53;;;1.40;;
23476;SDS011;11911;50.768;13.150;2022-09-09T07:06:41;2.70;;;1.20;;
23476;SDS011;11911;50.768;13.150;2022-09-09T07:09:10;4.90;;;1.30;;
23476;SDS011;11911;50.768;13.150;2022-09-09T07:11:41;4.83;;;1.03;;
23476;SDS011;11911;50.768;13.150;2022-09-09T07:14:08;3.90;;;1.13;;
23476;SDS011;11911;50.768;13.150;2022-09-09T07:16:34;4.37;;;1.10;;
23476;SDS011;11911;50.768;13.150;2022-09-09T07:19:01;4.00;;;0.90;;
23476;SDS011;11911;50.768;13.150;2022-09-09T07:21:28;4.43;;;1.10;;
23476;SDS011;11911;50.768;13.150;2022-09-09T07:23:55;1.73;;;0.80;;
23476;SDS011;11911;50.768;13.150;2022-09-09T07:26:22;3.13;;;0.90;;
23476;SDS011;11911;50.768;13.150;2022-09-09T07:28:49;2.33;;;0.90;;
23476;SDS011;11911;50.768;13.150;2022-09-09T07:31:16;7.50;;;1.00;;
23476;SDS011;11911;50.768;13.150;2022-09-09T07:33:43;3.97;;;1.10;;
23476;SDS011;11911;50.768;13.150;2022-09-09T07:36:10;3.70;;;1.00;;
23476;SDS011;11911;50.768;13.150;2022-09-09T07:38:47;1.93;;;0.90;;
23476;SDS011;11911;50.768;13.150;2022-09-09T07:41:24;1.77;;;0.80;;
23476;SDS011;11911;50.768;13.150;2022-09-09T07:43:59;5.43;;;1.10;;
23476;SDS011;11911;50.768;13.150;2022-09-09T07:46:28;4.97;;;1.97;;
23476;SDS011;11911;50.768;13.150;2022-09-09T07:48:54;6.20;;;2.00;;
23476;SDS011;11911;50.768;13.150;2022-09-09T07:51:28;6.07;;;4.13;;
23476;SDS011;11911;50.768;13.150;2022-09-09T07:53:56;3.93;;;2.10;;
23476;SDS011;11911;50.768;13.150;2022-09-09T07:56:23;3.13;;;1.97;;
23476;SDS011;11911;50.768;13.150;2022-09-09T07:58:51;4.07;;;3.67;;
23476;SDS011;11911;50.768;13.150;2022-09-09T08:01:20;4.80;;;3.73;;
23476;SDS011;11911;50.768;13.150;2022-09-09T08:03:57;9.40;;;5.20;;
23476;SDS011;11911;50.768;13.150;2022-09-09T08:06:26;4.40;;;4.00;;
23476;SDS011;11911;50.768;13.150;2022-09-09T08:08:53;6.10;;;3.97;;
23476;SDS011;11911;50.768;13.150;2022-09-09T08:11:21;5.40;;;4.30;;
23476;SDS011;11911;50.768;13.150;2022-09-09T08:13:50;5.50;;;3.57;;
23476;SDS011;11911;50.768;13.150;2022-09-09T08:16:20;4.03;;;2.83;;
23476;SDS011;11911;50.768;13.150;2022-09-09T08:18:51;4.43;;;2.40;;
23476;SDS011;11911;50.768;13.150;2022-09-09T08:21:21;3.60;;;1.80;;
23476;SDS011;11911;50.768;13.150;2022-09-09T08:23:50;2.50;;;1.70;;
23476;SDS011;11911;50.768;13.150;2022-09-09T08:26:23;4.77;;;1.50;;
23476;SDS011;11911;50.768;13.150;2022-09-09T08:28:53;3.50;;;1.40;;
23476;SDS011;11911;50.768;13.150;2022-09-09T08:31:24;2.53;;;1.03;;
23476;SDS011;11911;50.768;13.150;2022-09-09T08:33:54;8.23;;;1.70;;
23476;SDS011;11911;50.768;13.150;2022-09-09T08:36:21;6.03;;;1.67;;
23476;SDS011;11911;50.768;13.150;2022-09-09T08:38:49;5.13;;;2.37;;
23476;SDS011;11911;50.768;13.150;2022-09-09T08:47:11;3.77;;;1.50;;
23476;SDS011;11911;50.768;13.150;2022-09-09T08:58:33;6.53;;;2.80;;
23476;SDS011;11911;50.768;13.150;2022-09-09T09:03:42;7.50;;;1.50;;
23476;SDS011;11911;50.768;13.150;2022-09-09T09:06:24;3.50;;;1.20;;
23476;SDS011;11911;50.768;13.150;2022-09-09T09:09:20;3.67;;;1.00;;
23476;SDS011;11911;50.768;13.150;2022-09-09T09:11:57;3.27;;;1.10;;
23476;SDS011;11911;50.768;13.150;2022-09-09T09:14:26;2.73;;;1.30;;
23476;SDS011;11911;50.768;13.150;2022-09-09T09:17:14;5.60;;;1.57;;
23476;SDS011;11911;50.768;13.150;2022-09-09T09:19:44;4.13;;;1.57;;
23476;SDS011;11911;50.768;13.150;2022-09-09T09:24:49;4.57;;;1.40;;
23476;SDS011;11911;50.768;13.150;2022-09-09T09:27:21;4.57;;;1.20;;
23476;SDS011;11911;50.768;13.150;2022-09-09T09:30:22;3.73;;;1.17;;
23476;SDS011;11911;50.768;13.150;2022-09-09T09:33:11;3.60;;;1.10;;
23476;SDS011;11911;50.768;13.150;2022-09-09T09:35:39;2.77;;;0.90;;
23476;SDS011;11911;50.768;13.150;2022-09-09T09:38:21;8.90;;;1.40;;
23476;SDS011;11911;50.768;13.150;2022-09-09T09:40:52;2.60;;;1.10;;
23476;SDS011;11911;50.768;13.150;2022-09-09T09:43:35;4.10;;;1.30;;
23476;SDS011;11911;50.768;13.150;2022-09-09T09:46:04;2.27;;;1.00;;
23476;SDS011;11911;50.768;13.150;2022-09-09T09:48:30;3.73;;;0.97;;
23476;SDS011;11911;50.768;13.150;2022-09-09T09:50:58;2.67;;;1.07;;
23476;SDS011;11911;50.768;13.150;2022-09-09T09:53:30;3.40;;;1.23;;
23476;SDS011;11911;50.768;13.150;2022-09-09T09:56:10;14.17;;;1.50;;
23476;SDS011;11911;50.768;13.150;2022-09-09T10:01:26;3.10;;;1.10;;
23476;SDS011;11911;50.768;13.150;2022-09-09T10:03:57;4.30;;;1.00;;
23476;SDS011;11911;50.768;13.150;2022-09-09T10:06:43;3.30;;;0.87;;
23476;SDS011;11911;50.768;13.150;2022-09-09T10:09:28;4.10;;;0.97;;
23476;SDS011;11911;50.768;13.150;2022-09-09T12:00:46;1.70;;;1.00;;
23476;SDS011;11911;50.768;13.150;2022-09-09T12:08:46;2.53;;;0.90;;
23476;SDS011;11911;50.768;13.150;2022-09-09T12:11:25;4.17;;;0.97;;
23476;SDS011;11911;50.768;13.150;2022-09-09T12:13:52;2.27;;;1.03;;
23476;SDS011;11911;50.768;13.150;2022-09-09T12:16:29;1.63;;;0.77;;
23476;SDS011;11911;50.768;13.150;2022-09-09T12:21:40;1.30;;;0.90;;
23476;SDS011;11911;50.768;13.150;2022-09-09T12:24:37;3.13;;;1.00;;
23476;SDS011;11911;50.768;13.150;2022-09-09T12:27:22;2.60;;;1.00;;
23476;SDS011;11911;50.768;13.150;2022-09-09T12:30:09;1.80;;;1.00;;
23476;SDS011;11911;50.768;13.150;2022-09-09T12:32:37;2.60;;;1.00;;
23476;SDS011;11911;50.768;13.150;2022-09-09T12:35:09;4.50;;;1.60;;
23476;SDS011;11911;50.768;13.150;2022-09-09T12:37:49;1.70;;;1.10;;
23476;SDS011;11911;50.768;13.150;2022-09-09T12:40:23;2.23;;;0.80;;
23476;SDS011;11911;50.768;13.150;2022-09-09T12:42:50;1.20;;;0.70;;
23476;SDS011;11911;50.768;13.150;2022-09-09T12:45:20;1.50;;;1.13;;
23476;SDS011;11911;50.768;13.150;2022-09-09T12:47:59;4.00;;;1.30;;
23476;SDS011;11911;50.768;13.150;2022-09-09T12:50:32;3.00;;;0.90;;
23476;SDS011;11911;50.768;13.150;2022-09-09T12:53:04;2.93;;;0.80;;
23476;SDS011;11911;50.768;13.150;2022-09-09T12:55:37;1.70;;;0.80;;
23476;SDS011;11911;50.768;13.150;2022-09-09T12:58:04;2.50;;;1.00;;
23476;SDS011;11911;50.768;13.150;2022-09-09T13:00:31;4.03;;;1.10;;
23476;SDS011;11911;50.768;13.150;2022-09-09T13:02:59;2.70;;;0.90;;
23476;SDS011;11911;50.768;13.150;2022-09-09T13:05:40;3.07;;;1.00;;
23476;SDS011;11911;50.768;13.150;2022-09-09T13:08:08;2.80;;;1.10;;
23476;SDS011;11911;50.768;13.150;2022-09-09T13:10:36;4.50;;;1.00;;
23476;SDS011;11911;50.768;13.150;2022-09-09T13:13:19;1.67;;;0.80;;
23476;SDS011;11911;50.768;13.150;2022-09-09T13:15:48;4.10;;;1.07;;
23476;SDS011;11911;50.768;13.150;2022-09-09T13:18:15;1.47;;;0.80;;
23476;SDS011;11911;50.768;13.150;2022-09-09T13:20:47;1.43;;;0.70;;
23476;SDS011;11911;50.768;13.150;2022-09-09T13:23:14;1.70;;;0.90;;
23476;SDS011;11911;50.768;13.150;2022-09-09T13:25:41;1.77;;;1.00;;
23476;SDS011;11911;50.768;13.150;2022-09-09T13:28:22;2.27;;;0.83;;
23476;SDS011;11911;50.768;13.150;2022-09-09T13:30:59;1.87;;;0.90;;
23476;SDS011;11911;50.768;13.150;2022-09-09T13:33:35;6.00;;;0.80;;
23476;SDS011;11911;50.768;13.150;2022-09-09T13:36:05;2.40;;;0.90;;
23476;SDS011;11911;50.768;13.150;2022-09-09T13:38:33;1.30;;;0.83;;
23476;SDS011;11911;50.768;13.150;2022-09-09T13:41:08;2.90;;;0.90;;
23476;SDS011;11911;50.768;13.150;2022-09-09T13:43:43;1.73;;;0.90;;
23476;SDS011;11911;50.768;13.150;2022-09-09T13:51:47;2.60;;;1.27;;
23476;SDS011;11911;50.768;13.150;2022-09-09T13:54:18;3.17;;;0.90;;
23476;SDS011;11911;50.768;13.150;2022-09-09T13:56:45;1.93;;;0.80;;
23476;SDS011;11911;50.768;13.150;2022-09-09T13:59:15;1.80;;;0.80;;
23476;SDS011;11911;50.768;13.150;2022-09-09T14:01:43;5.10;;;1.50;;
23476;SDS011;11911;50.768;13.150;2022-09-09T14:04:09;1.67;;;0.80;;
23476;SDS011;11911;50.768;13.150;2022-09-09T14:06:35;3.33;;;1.00;;
23476;SDS011;11911;50.768;13.150;2022-09-09T14:09:03;1.40;;;0.90;;
23476;SDS011;11911;50.768;13.150;2022-09-09T14:11:29;2.37;;;1.00;;
23476;SDS011;11911;50.768;13.150;2022-09-09T14:13:54;1.63;;;0.77;;
23476;SDS011;11911;50.768;13.150;2022-09-09T14:16:20;1.67;;;0.90;;
23476;SDS011;11911;50.768;13.150;2022-09-09T14:18:46;1.67;;;0.70;;
23476;SDS011;11911;50.768;13.150;2022-09-09T14:21:12;1.63;;;1.17;;
23476;SDS011;11911;50.768;13.150;2022-09-09T14:23:39;4.20;;;1.10;;
23476;SDS011;11911;50.768;13.150;2022-09-09T14:26:05;1.47;;;0.83;;
23476;SDS011;11911;50.768;13.150;2022-09-09T14:28:30;1.67;;;0.73;;
23476;SDS011;11911;50.768;13.150;2022-09-09T14:30:58;7.37;;;1.00;;
23476;SDS011;11911;50.768;13.150;2022-09-09T14:33:25;4.53;;;1.27;;
23476;SDS011;11911;50.768;13.150;2022-09-09T14:35:56;1.57;;;0.73;;
23476;SDS011;11911;50.768;13.150;2022-09-09T14:38:22;2.20;;;1.10;;
23476;SDS011;11911;50.768;13.150;2022-09-09T14:40:48;3.10;;;0.80;;
23476;SDS011;11911;50.768;13.150;2022-09-09T14:43:14;2.00;;;1.20;;
23476;SDS011;11911;50.768;13.150;2022-09-09T14:45:39;2.33;;;0.90;;
23476;SDS011;11911;50.768;13.150;2022-09-09T14:48:05;2.57;;;1.20;;
23476;SDS011;11911;50.768;13.150;2022-09-09T14:50:31;4.13;;;1.10;;
23476;SDS011;11911;50.768;13.150;2022-09-09T14:52:56;2.33;;;1.10;;
23476;SDS011;11911;50.768;13.150;2022-09-09T14:55:22;2.77;;;1.30;;
23476;SDS011;11911;50.768;13.150;2022-09-09T14:57:47;3.60;;;1.40;;
23476;SDS011;11911;50.768;13.150;2022-09-09T15:00:14;3.00;;;1.13;;
23476;SDS011;11911;50.768;13.150;2022-09-09T15:02:39;2.70;;;1.10;;
23476;SDS011;11911;50.768;13.150;2022-09-09T15:05:05;7.20;;;1.30;;
23476;SDS011;11911;50.768;13.150;2022-09-09T15:07:31;4.83;;;1.07;;
23476;SDS011;11911;50.768;13.150;2022-09-09T15:09:56;1.90;;;1.10;;
23476;SDS011;11911;50.768;13.150;2022-09-09T15:12:23;3.07;;;1.40;;
23476;SDS011;11911;50.768;13.150;2022-09-09T15:14:49;1.53;;;1.00;;
23476;SDS011;11911;50.768;13.150;2022-09-09T15:17:15;1.90;;;1.30;;
23476;SDS011;11911;50.768;13.150;2022-09-09T15:19:41;4.43;;;1.43;;
23476;SDS011;11911;50.768;13.150;2022-09-09T15:22:07;3.10;;;1.40;;
23476;SDS011;11911;50.768;13.150;2022-09-09T15:24:33;3.13;;;1.10;;
23476;SDS011;11911;50.768;13.150;2022-09-09T15:27:00;1.70;;;1.00;;
23476;SDS011;11911;50.768;13.150;2022-09-09T15:29:26;2.60;;;1.60;;
23476;SDS011;11911;50.768;13.150;2022-09-09T15:31:53;2.33;;;1.30;;
23476;SDS011;11911;50.768;13.150;2022-09-09T15:34:19;6.47;;;1.30;;
23476;SDS011;11911;50.768;13.150;2022-09-09T15:36:44;4.17;;;1.40;;
23476;SDS011;11911;50.768;13.150;2022-09-09T15:39:11;2.13;;;1.13;;
23476;SDS011;11911;50.768;13.150;2022-09-09T15:41:40;5.77;;;1.60;;
23476;SDS011;11911;50.768;13.150;2022-09-09T15:44:06;3.57;;;1.20;;
23476;SDS011;11911;50.768;13.150;2022-09-09T15:46:37;9.23;;;1.30;;
23476;SDS011;11911;50.768;13.150;2022-09-09T15:49:14;3.13;;;0.90;;
23476;SDS011;11911;50.768;13.150;2022-09-09T15:51:44;2.70;;;1.10;;
23476;SDS011;11911;50.768;13.150;2022-09-09T15:54:12;3.57;;;1.20;;
23476;SDS011;11911;50.768;13.150;2022-09-09T15:56:39;2.13;;;1.40;;
23476;SDS011;11911;50.768;13.150;2022-09-09T15:59:05;3.20;;;1.30;;
23476;SDS011;11911;50.768;13.150;2022-09-09T16:01:31;2.40;;;1.43;;
23476;SDS011;11911;50.768;13.150;2022-09-09T16:03:57;3.20;;;1.40;;
23476;SDS011;11911;50.768;13.150;2022-09-09T16:06:25;2.53;;;1.03;;
23476;SDS011;11911;50.768;13.150;2022-09-09T16:08:53;2.33;;;1.13;;
23476;SDS011;11911;50.768;13.150;2022-09-09T16:11:23;3.80;;;1.43;;
23476;SDS011;11911;50.768;13.150;2022-09-09T16:13:50;1.73;;;1.30;;
23476;SDS011;11911;50.768;13.150;2022-09-09T16:16:18;1.57;;;1.00;;
23476;SDS011;11911;50.768;13.150;2022-09-09T16:18:47;5.53;;;1.80;;
23476;SDS011;11911;50.768;13.150;2022-09-09T16:21:15;3.03;;;1.70;;
23476;SDS011;11911;50.768;13.150;2022-09-09T16:23:46;2.23;;;1.10;;
23476;SDS011;11911;50.768;13.150;2022-09-09T16:26:13;2.43;;;1.13;;
23476;SDS011;11911;50.768;13.150;2022-09-09T16:28:40;3.90;;;1.17;;
23476;SDS011;11911;50.768;13.150;2022-09-09T16:31:07;3.73;;;1.43;;
23476;SDS011;11911;50.768;13.150;2022-09-09T16:33:38;3.67;;;1.10;;
23476;SDS011;11911;50.768;13.150;2022-09-09T16:36:08;3.23;;;1.07;;
23476;SDS011;11911;50.768;13.150;2022-09-09T16:38:35;1.80;;;1.13;;
23476;SDS011;11911;50.768;13.150;2022-09-09T16:41:02;2.17;;;1.07;;
23476;SDS011;11911;50.768;13.150;2022-09-09T16:43:29;1.40;;;1.13;;
23476;SDS011;11911;50.768;13.150;2022-09-09T16:45:55;4.60;;;1.13;;
23476;SDS011;11911;50.768;13.150;2022-09-09T16:48:20;2.03;;;0.90;;
23476;SDS011;11911;50.768;13.150;2022-09-09T16:50:46;4.57;;;0.90;;
23476;SDS011;11911;50.768;13.150;2022-09-09T16:53:11;2.00;;;1.13;;
23476;SDS011;11911;50.768;13.150;2022-09-09T16:55:38;1.63;;;0.90;;
23476;SDS011;11911;50.768;13.150;2022-09-09T16:58:04;1.53;;;0.80;;
23476;SDS011;11911;50.768;13.150;2022-09-09T17:13:27;0.90;;;0.60;;
23476;SDS011;11911;50.768;13.150;2022-09-09T17:15:52;2.60;;;0.80;;
23476;SDS011;11911;50.768;13.150;2022-09-09T17:18:18;2.10;;;0.80;;
23476;SDS011;11911;50.768;13.150;2022-09-09T17:20:44;2.00;;;0.70;;
23476;SDS011;11911;50.768;13.150;2022-09-09T17:23:10;2.50;;;0.73;;
23476;SDS011;11911;50.768;13.150;2022-09-09T17:25:38;1.63;;;0.80;;
23476;SDS011;11911;50.768;13.150;2022-09-09T17:28:03;1.50;;;0.60;;
23476;SDS011;11911;50.768;13.150;2022-09-09T17:30:30;1.17;;;0.70;;
23476;SDS011;11911;50.768;13.150;2022-09-09T17:32:59;1.53;;;0.70;;
23476;SDS011;11911;50.768;13.150;2022-09-09T17:35:25;1.60;;;0.77;;
23476;SDS011;11911;50.768;13.150;2022-09-09T17:37:52;1.40;;;0.60;;
23476;SDS011;11911;50.768;13.150;2022-09-09T17:40:19;3.53;;;0.70;;
23476;SDS011;11911;50.768;13.150;2022-09-09T17:42:45;1.20;;;0.70;;
23476;SDS011;11911;50.768;13.150;2022-09-09T17:45:10;1.10;;;0.60;;
23476;SDS011;11911;50.768;13.150;2022-09-09T17:47:36;1.87;;;0.87;;
23476;SDS011;11911;50.768;13.150;2022-09-09T17:50:02;2.13;;;0.70;;
23476;SDS011;11911;50.768;13.150;2022-09-09T17:52:27;1.27;;;0.80;;
23476;SDS011;11911;50.768;13.150;2022-09-09T17:54:53;1.20;;;0.60;;
23476;SDS011;11911;50.768;13.150;2022-09-09T17:57:21;1.00;;;0.60;;
23476;SDS011;11911;50.768;13.150;2022-09-09T17:59:47;0.90;;;0.63;;
23476;SDS011;11911;50.768;13.150;2022-09-09T21:37:02;1.47;;;0.60;;
23476;SDS011;11911;50.768;13.150;2022-09-09T21:39:27;2.10;;;0.77;;
23476;SDS011;11911;50.768;13.150;2022-09-09T21:41:53;1.10;;;0.70;;
23476;SDS011;11911;50.768;13.150;2022-09-09T21:44:18;2.27;;;0.93;;
23476;SDS011;11911;50.768;13.150;2022-09-09T21:46:44;5.33;;;1.80;;
23476;SDS011;11911;50.768;13.150;2022-09-09T21:49:10;1.47;;;0.77;;
23476;SDS011;11911;50.768;13.150;2022-09-09T21:51:36;2.30;;;0.90;;
23476;SDS011;11911;50.768;13.150;2022-09-09T21:54:01;1.70;;;0.80;;
23476;SDS011;11911;50.768;13.150;2022-09-09T21:56:27;1.10;;;0.80;;
23476;SDS011;11911;50.768;13.150;2022-09-09T21:58:53;3.43;;;1.00;;
23476;SDS011;11911;50.768;13.150;2022-09-09T22:01:20;2.23;;;0.63;;
23476;SDS011;11911;50.768;13.150;2022-09-09T22:03:48;1.23;;;0.83;;
23476;SDS011;11911;50.768;13.150;2022-09-09T22:06:14;4.27;;;0.90;;
23476;SDS011;11911;50.768;13.150;2022-09-09T22:08:41;1.90;;;0.70;;
23476;SDS011;11911;50.768;13.150;2022-09-09T22:11:08;2.90;;;1.00;;
23476;SDS011;11911;50.768;13.150;2022-09-09T22:13:37;1.30;;;0.73;;
23476;SDS011;11911;50.768;13.150;2022-09-09T22:16:03;1.30;;;0.90;;
23476;SDS011;11911;50.768;13.150;2022-09-09T22:18:30;2.47;;;0.87;;
23476;SDS011;11911;50.768;13.150;2022-09-09T22:20:56;1.53;;;0.70;;
23476;SDS011;11911;50.768;13.150;2022-09-09T22:23:23;1.20;;;0.67;;
23476;SDS011;11911;50.768;13.150;2022-09-09T22:25:49;1.70;;;0.80;;
23476;SDS011;11911;50.768;13.150;2022-09-09T22:28:16;1.27;;;0.77;;
23476;SDS011;11911;50.768;13.150;2022-09-09T22:30:42;1.50;;;0.70;;
23476;SDS011;11911;50.768;13.150;2022-09-09T22:33:07;3.13;;;0.80;;
23476;SDS011;11911;50.768;13.150;2022-09-09T22:35:37;2.70;;;0.80;;
23476;SDS011;11911;50.768;13.150;2022-09-09T22:38:09;3.43;;;0.90;;
23476;SDS011;11911;50.768;13.150;2022-09-09T22:40:40;2.50;;;0.90;;
23476;SDS011;11911;50.768;13.150;2022-09-09T22:43:06;1.57;;;0.90;;
23476;SDS011;11911;50.768;13.150;2022-09-09T22:45:37;3.30;;;0.90;;
23476;SDS011;11911;50.768;13.150;2022-09-09T22:48:03;4.70;;;0.97;;
23476;SDS011;11911;50.768;13.150;2022-09-09T22:50:32;3.10;;;1.10;;
23476;SDS011;11911;50.768;13.150;2022-09-09T22:52:59;3.00;;;0.70;;
23476;SDS011;11911;50.768;13.150;2022-09-09T22:55:24;1.70;;;0.80;;
23476;SDS011;11911;50.768;13.150;2022-09-09T22:57:51;2.60;;;0.83;;
23476;SDS011;11911;50.768;13.150;2022-09-09T23:00:17;2.90;;;0.83;;
23476;SDS011;11911;50.768;13.150;2022-09-09T23:02:42;3.50;;;0.80;;
23476;SDS011;11911;50.768;13.150;2022-09-09T23:05:08;1.07;;;0.63;;
23476;SDS011;11911;50.768;13.150;2022-09-09T23:07:34;4.20;;;0.80;;
23476;SDS011;11911;50.768;13.150;2022-09-09T23:10:00;1.50;;;0.90;;
23476;SDS011;11911;50.768;13.150;2022-09-09T23:12:27;2.90;;;0.70;;
23476;SDS011;11911;50.768;13.150;2022-09-09T23:14:54;4.47;;;1.20;;
23476;SDS011;11911;50.768;13.150;2022-09-09T23:17:20;1.83;;;0.80;;
23476;SDS011;11911;50.768;13.150;2022-09-09T23:19:45;2.60;;;0.90;;
23476;SDS011;11911;50.768;13.150;2022-09-09T23:22:12;1.87;;;0.80;;
23476;SDS011;11911;50.768;13.150;2022-09-09T23:24:39;2.30;;;0.80;;
23476;SDS011;11911;50.768;13.150;2022-09-09T23:27:05;3.17;;;1.07;;
23476;SDS011;11911;50.768;13.150;2022-09-09T23:29:30;2.17;;;0.70;;
23476;SDS011;11911;50.768;13.150;2022-09-09T23:31:56;2.50;;;1.00;;
23476;SDS011;11911;50.768;13.150;2022-09-09T23:34:21;2.33;;;0.90;;
23476;SDS011;11911;50.768;13.150;2022-09-09T23:36:47;2.43;;;0.80;;
23476;SDS011;11911;50.768;13.150;2022-09-09T23:39:12;1.20;;;0.60;;
23476;SDS011;11911;50.768;13.150;2022-09-09T23:41:38;1.30;;;0.70;;
23476;SDS011;11911;50.768;13.150;2022-09-09T23:44:04;2.07;;;0.80;;
23476;SDS011;11911;50.768;13.150;2022-09-09T23:46:31;4.13;;;0.83;;
23476;SDS011;11911;50.768;13.150;2022-09-09T23:48:58;2.80;;;0.80;;
23476;SDS011;11911;50.768;13.150;2022-09-09T23:51:24;2.60;;;0.90;;
23476;SDS011;11911;50.768;13.150;2022-09-09T23:53:54;1.57;;;0.90;;
23476;SDS011;11911;50.768;13.150;2022-09-09T23:56:22;1.83;;;1.10;;
23476;SDS011;11911;50.768;13.150;2022-09-09T23:58:50;3.10;;;0.80;;
